Latest Weather Observations for Hobart Airport

IDT60801

Issued at 11:35 pm EST Thursday 31 July 2014 (issued every 30 minutes, with the page automatically refreshed every 10 minutes)

About weather observations | Map of weather stations | Latest weather observations for TAS | Other Formats
Station Details ID: 094008 Name: HOBART AIRPORT Lat: -42.83 Lon: 147.50 Height: 4.0 m
Data from the previous 72 hours. | See also: Recent months at Hobart Airport
Date/Time
EST
Temp
°C
App
Temp
°C
Dew
Point
Rel
Hum
%
Delta-T
°C
Wind Press
QNH
hPa
Press
MSL
hPa
Rain
since 9 am
mm
Dir
 
Spd
km/h
Gust
km/h
Spd
kts
Gust
kts
31/11:30pm 4.4 -3.3 2.2 86 0.9 NNW 32 50 17 27 985.3 - 18.4
31/11:00pm 5.3 -4.1 2.4 81 1.2 NW 41 56 22 30 985.9 986.0 18.0
31/10:30pm 5.9 -3.2 2.0 76 1.6 NW 39 57 21 31 984.5 - 17.4
31/10:00pm 6.1 -2.2 2.0 75 1.7 NW 35 54 19 29 984.7 984.8 17.2
31/09:30pm 6.2 -2.6 1.5 72 1.9 NW 37 50 20 27 984.2 - 17.0
31/09:00pm 6.3 -3.7 2.2 75 1.7 NW 44 63 24 34 984.1 984.2 17.0
31/08:45pm 6.7 -2.1 1.3 68 2.2 NNW 37 65 20 35 983.0 - 17.0
31/08:30pm 6.4 -1.0 2.1 74 1.8 NNW 30 39 16 21 982.7 - 17.0
31/08:00pm 6.5 -0.8 2.7 77 1.6 NNW 30 48 16 26 982.3 982.3 16.8
31/07:48pm 6.9 -0.5 2.1 71 2.0 NNW 30 52 16 28 982.9 - 16.0
31/07:30pm 6.9 -1.1 1.8 70 2.1 NNW 33 43 18 23 982.6 - 15.8
31/07:00pm 7.4 -5.0 1.6 66 2.4 NW 56 78 30 42 981.9 981.9 15.8
31/06:55pm 7.6 -4.4 1.3 64 2.6 NW 54 78 29 42 981.8 - 15.8
31/06:49pm 8.4 0.5 1.2 60 2.9 NNW 32 57 17 31 982.1 - 15.8
31/06:30pm 8.5 1.3 1.0 59 3.0 NNW 28 37 15 20 981.6 - 15.8
31/06:04pm 8.5 1.6 2.4 65 2.6 NNW 28 50 15 27 981.6 - 15.8
31/05:30pm 7.5 3.7 4.1 79 1.5 N 13 17 7 9 981.4 - 15.8
31/05:00pm 7.0 3.4 5.0 87 0.9 N 13 19 7 10 980.8 980.8 15.8
31/04:30pm 7.1 3.1 5.1 87 0.9 N 15 24 8 13 981.9 - 15.8
31/04:00pm 6.9 2.3 3.9 81 1.3 N 17 24 9 13 982.0 982.0 15.8
31/03:30pm 6.8 4.0 5.2 89 0.7 N 9 13 5 7 981.4 - 15.8
31/03:00pm 6.6 3.7 4.8 88 0.8 S 9 11 5 6 981.5 981.5 15.8
31/02:30pm 6.2 3.6 4.4 88 0.8 SSW 7 11 4 6 983.1 - 15.4
31/02:00pm 6.8 3.7 5.5 91 0.6 SW 11 15 6 8 982.5 982.5 15.0
31/01:30pm 7.1 4.1 6.2 94 0.4 SW 11 15 6 8 982.4 - 13.8
31/01:00pm 7.2 4.6 6.3 94 0.4 S 9 11 5 6 982.5 982.5 11.0
31/12:30pm 7.3 5.1 6.2 93 0.5 SE 7 11 4 6 982.7 - 8.2
31/12:00pm 7.3 4.8 6.7 96 0.3 S 9 11 5 6 983.4 983.5 6.6
31/11:30am 7.4 6.2 6.5 94 0.4 ENE 2 7 1 4 984.4 - 5.2
31/11:00am 7.4 4.9 6.5 94 0.4 NE 9 13 5 7 984.9 985.0 4.4
31/10:30am 7.4 5.8 6.5 94 0.4 WSW 4 7 2 4 986.2 - 2.4
31/10:00am 7.6 5.1 6.5 93 0.5 NNW 9 9 5 5 986.7 986.8 1.0
31/09:53am 7.6 5.1 6.5 93 0.5 NNW 9 11 5 6 986.8 - 0.8
31/09:30am 7.6 5.1 6.5 93 0.5 NNE 9 11 5 6 986.7 - 0.4
31/09:00am 7.7 5.6 6.6 93 0.5 N 7 9 4 5 986.9 987.0 10.2
31/08:30am 7.5 5.5 6.4 93 0.5 N 6 9 3 5 988.8 - 10.0
31/08:00am 7.6 5.0 6.3 91 0.6 N 9 11 5 6 989.0 989.1 9.8
31/07:30am 7.4 4.1 6.3 93 0.5 NNE 13 17 7 9 989.0 - 9.8
31/07:00am 7.2 3.8 6.1 93 0.5 NNE 13 17 7 9 989.7 989.8 9.0
31/06:30am 7.4 4.7 5.6 88 0.8 W 9 15 5 8 989.9 - 8.0
31/06:00am 7.4 5.0 5.4 87 0.9 SE 7 9 4 5 989.6 989.7 7.8
31/05:30am 7.8 3.6 5.6 86 1.0 S 17 24 9 13 989.9 - 7.8
31/05:00am 8.4 3.2 7.1 91 0.6 SSW 24 33 13 18 990.2 990.3 6.8
31/04:41am 9.7 5.1 8.1 90 0.8 SSW 22 35 12 19 989.7 - 5.0
31/04:30am 10.4 6.1 8.0 85 1.2 WSW 20 28 11 15 989.2 - 3.4
31/04:00am 11.3 3.9 6.7 73 2.2 WNW 35 56 19 30 987.8 987.9 2.0
31/03:30am 10.9 7.7 7.0 77 1.9 NNW 13 17 7 9 988.6 - 0.8
31/03:00am 11.9 7.0 6.7 70 2.5 W 22 33 12 18 988.9 989.0 0.8
31/02:30am 13.1 6.6 6.5 64 3.2 NW 30 50 16 27 989.1 - 0.4
31/02:18am 13.8 6.6 5.1 55 4.1 NNW 32 54 17 29 988.3 - 0.2
31/02:00am 13.7 5.6 5.3 57 4.0 NNW 37 50 20 27 988.1 988.2 0.2
31/01:30am 13.9 6.5 3.9 51 4.6 NNW 32 41 17 22 987.8 - 0.2
31/01:08am 13.4 5.8 4.1 53 4.2 NNW 33 52 18 28 988.0 - 0.2
31/01:00am 13.6 5.3 4.1 52 4.4 NW 37 48 20 26 987.9 988.0 0.2
31/12:41am 13.4 5.1 4.1 53 4.2 NNW 37 56 20 30 988.1 - 0.2
31/12:30am 13.6 5.5 3.5 50 4.5 NNW 35 50 19 27 987.9 - 0.2
31/12:00am 13.6 3.9 3.8 51 4.5 NW 44 65 24 35 988.7 988.8 0.2
 
Date/Time
EST
Temp
°C
App
Temp
°C
Dew
Point
Rel
Hum
%
Delta-T
°C
Wind Press
QNH
hPa
Press
MSL
hPa
Rain
since 9 am
mm
Dir
 
Spd
km/h
Gust
km/h
Spd
kts
Gust
kts
30/11:43pm 13.6 5.1 3.2 49 4.7 NNW 37 56 20 30 989.2 - 0.2
30/11:30pm 12.9 5.5 4.2 55 4.0 NNW 32 43 17 23 989.3 - 0.2
30/11:00pm 13.2 4.6 4.6 56 4.0 NW 39 50 21 27 989.1 989.2 0.2
30/10:58pm 13.3 4.7 4.5 55 4.0 NW 39 50 21 27 989.2 - 0.2
30/10:30pm 14.6 2.2 2.6 44 5.3 NW 57 78 31 42 989.2 - 0.2
30/10:08pm 14.5 3.7 1.9 42 5.5 NW 48 72 26 39 989.0 - 0.2
30/10:00pm 13.9 5.0 2.8 47 5.0 NNW 39 52 21 28 989.8 989.9 0.2
30/09:30pm 14.0 3.7 2.9 47 4.9 NW 46 76 25 41 989.5 - 0.2
30/09:11pm 12.8 5.4 4.1 55 3.9 NW 32 57 17 31 990.0 - 0.2
30/09:00pm 12.5 6.7 4.5 58 3.7 NNW 24 33 13 18 990.2 990.3 0.2
30/08:30pm 11.7 7.1 5.5 66 2.9 NNW 19 30 10 16 991.0 - 0.2
30/08:00pm 12.1 5.0 5.3 63 3.2 NNW 32 43 17 23 991.4 991.5 0.2
30/07:30pm 11.8 5.7 4.9 62 3.2 NW 26 37 14 20 991.8 - 0.2
30/07:00pm 11.9 6.3 5.3 64 3.1 NNW 24 33 13 18 992.2 992.3 0.2
30/06:30pm 12.8 4.7 5.1 59 3.6 NW 37 50 20 27 992.5 - 0.2
30/06:16pm 12.8 6.1 5.6 61 3.4 NW 30 54 16 29 992.6 - 0.2
30/06:00pm 12.1 6.9 7.2 72 2.4 NW 24 33 13 18 992.9 993.0 0.2
30/05:30pm 11.9 5.2 7.2 73 2.3 NW 32 43 17 23 993.0 - 0.2
30/05:00pm 12.1 6.4 6.9 70 2.5 NW 26 35 14 19 992.7 992.8 0.2
30/04:30pm 12.3 5.3 6.9 69 2.6 NW 33 43 18 23 992.3 - 0.2
30/04:03pm 12.6 6.5 6.8 68 2.8 NW 28 46 15 25 992.7 - 0.2
30/04:00pm 12.6 7.3 6.8 68 2.8 NW 24 46 13 25 992.8 992.9 0.2
30/03:30pm 12.3 7.4 6.7 68 2.7 NW 22 33 12 18 992.3 - 0.2
30/03:00pm 12.0 5.1 6.6 69 2.6 NW 32 50 17 27 992.9 993.0 0.2
30/02:35pm 11.9 5.1 6.7 70 2.5 NW 32 50 17 27 993.0 - 0.2
30/02:30pm 11.8 5.4 6.8 71 2.4 NW 30 44 16 24 993.0 - 0.2
30/02:00pm 11.7 5.6 6.7 71 2.4 NW 28 50 15 27 993.8 993.9 0.2
30/01:41pm 11.7 3.5 6.5 70 2.5 NW 39 57 21 31 994.0 - 0.2
30/01:30pm 12.0 2.9 5.9 66 2.9 NW 43 56 23 30 994.1 - 0.0
30/01:13pm 12.1 2.8 6.0 66 2.9 NW 44 63 24 34 994.0 - 0.0
30/01:00pm 12.8 2.6 5.4 60 3.5 NW 48 59 26 32 994.0 994.1 0.0
30/12:30pm 13.2 2.6 5.1 58 3.8 NW 50 70 27 38 993.8 - 0.0
30/12:11pm 13.0 3.1 4.8 57 3.8 NW 46 67 25 36 993.7 - 0.0
30/12:00pm 12.7 2.6 5.5 61 3.4 NW 48 61 26 33 993.8 993.9 0.0
30/11:30am 12.3 0.5 5.5 63 3.2 NW 57 76 31 41 993.8 - 0.0
30/11:00am 13.3 0.9 4.4 55 4.1 NW 59 78 32 42 993.8 993.9 0.0
30/10:30am 13.3 1.1 3.9 53 4.3 NW 57 76 31 41 994.3 - 0.0
30/10:00am 12.5 0.9 3.7 55 4.0 NW 54 72 29 39 994.4 994.5 0.0
30/09:35am 12.2 1.6 3.3 54 3.9 NW 48 67 26 36 994.6 - 0.0
30/09:30am 12.1 0.8 3.4 55 3.9 NW 52 67 28 36 994.5 - 0.0
30/09:14am 11.7 2.8 2.9 55 3.8 NW 39 57 21 31 994.5 - 0.0
30/09:00am 11.1 2.1 2.6 56 3.7 NW 39 52 21 28 994.6 994.7 8.6
30/08:37am 10.4 0.1 2.5 58 3.4 NW 46 65 25 35 995.0 - 8.6
30/08:30am 10.4 -0.7 2.5 58 3.4 NW 50 65 27 35 995.2 - 8.6
30/08:21am 10.3 2.0 2.4 58 3.4 NW 35 56 19 30 995.3 - 8.6
30/08:00am 9.7 0.2 1.6 57 3.4 NW 41 56 22 30 995.2 995.3 8.6
30/07:51am 9.7 1.7 0.4 52 3.8 NW 32 52 17 28 995.4 - 8.6
30/07:30am 9.0 1.7 0.1 53 3.5 NW 28 39 15 21 995.5 - 8.6
30/07:00am 9.4 1.8 0.3 53 3.7 NW 30 41 16 22 995.1 995.2 8.6
30/06:30am 8.9 1.4 1.1 58 3.2 NNW 30 39 16 21 995.9 - 8.6
30/06:00am 8.4 1.9 2.5 66 2.5 NNW 26 37 14 20 996.3 996.4 8.6
30/05:30am 8.5 1.3 2.9 68 2.4 NW 30 39 16 21 996.4 - 8.6
30/05:00am 9.8 2.1 0.2 51 3.9 NW 30 44 16 24 996.3 996.4 8.6
30/04:30am 9.5 1.4 0.7 54 3.6 WNW 33 54 18 29 996.2 - 8.6
30/04:00am 10.5 1.3 -1.7 42 4.8 WNW 37 56 20 30 995.6 995.7 8.6
30/03:32am 9.3 1.0 2.0 60 3.1 WNW 35 59 19 32 995.3 - 8.6
30/03:30am 9.4 1.0 1.8 59 3.2 WNW 35 52 19 28 995.2 - 8.6
30/03:00am 9.0 1.4 3.0 66 2.6 WNW 32 50 17 27 994.3 994.4 8.6
30/02:30am 9.1 2.2 2.6 64 2.8 WNW 28 46 15 25 994.0 - 8.6
30/02:08am 8.6 1.8 3.3 69 2.3 NNW 28 48 15 26 993.4 - 8.6
30/02:00am 8.5 2.9 3.4 70 2.2 NNW 22 30 12 16 993.1 993.2 8.6
30/01:30am 9.9 0.1 -0.2 49 4.0 WNW 41 69 22 37 991.9 - 8.6
30/01:00am 8.4 -1.4 3.3 70 2.2 WNW 44 63 24 34 993.0 993.1 8.4
30/12:33am 8.3 -0.2 3.2 70 2.2 W 37 59 20 32 991.9 - 7.8
30/12:30am 8.3 -0.2 3.2 70 2.2 W 37 52 20 28 992.0 - 7.6
30/12:08am 9.6 1.7 2.1 59 3.2 WNW 33 54 18 29 991.3 - 7.0
30/12:00am 9.9 1.8 1.3 55 3.6 WNW 33 48 18 26 991.1 991.2 7.0
 
Date/Time
EST
Temp
°C
App
Temp
°C
Dew
Point
Rel
Hum
%
Delta-T
°C
Wind Press
QNH
hPa
Press
MSL
hPa
Rain
since 9 am
mm
Dir
 
Spd
km/h
Gust
km/h
Spd
kts
Gust
kts
29/11:30pm 8.4 -1.1 4.1 74 1.9 WNW 43 63 23 34 991.0 - 7.0
29/11:18pm 9.5 -0.3 2.5 61 3.0 WNW 43 83 23 45 990.5 - 6.2
29/11:03pm 9.5 1.9 3.1 64 2.8 NNW 32 56 17 30 989.6 - 6.0
29/11:00pm 9.6 2.4 2.9 63 2.9 NNW 30 44 16 24 989.7 989.8 5.8
29/10:42pm 10.4 2.0 1.4 53 3.8 NW 35 57 19 31 988.9 - 5.8
29/10:30pm 11.0 1.7 0.4 48 4.3 WNW 39 46 21 25 989.4 - 5.8
29/10:10pm 11.6 -4.1 -0.6 43 4.9 W 72 104 39 56 989.3 - 5.8
29/10:08pm 11.8 1.9 -1.0 41 5.1 W 41 82 22 44 988.7 - 5.8
29/10:00pm 12.4 2.2 -3.3 33 6.1 WNW 41 54 22 29 988.6 988.7 5.8
29/09:30pm 11.6 1.4 -0.3 44 4.8 W 43 65 23 35 988.5 - 5.8
29/09:11pm 11.1 2.3 1.5 51 4.0 WNW 37 56 20 30 988.5 - 5.8
29/09:00pm 10.1 1.6 3.3 62 3.0 WNW 37 50 20 27 988.3 988.4 5.8
29/08:30pm 9.4 -2.2 4.0 69 2.4 WNW 54 74 29 40 988.1 - 5.8
29/08:28pm 9.3 -2.6 4.4 71 2.2 WNW 56 74 30 40 988.0 - 5.4
29/08:26pm 9.4 -2.7 4.3 70 2.3 WNW 57 74 31 40 988.2 - 5.4
29/08:22pm 10.8 -1.4 3.6 61 3.2 NW 57 74 31 40 989.1 - 5.2
29/08:04pm 10.5 3.5 4.1 64 2.8 NNW 30 50 16 27 987.0 - 5.2
29/08:00pm 10.6 4.3 3.9 63 3.0 NW 26 35 14 19 986.9 987.0 5.2
29/07:51pm 10.6 3.9 3.7 62 3.0 N 28 35 15 19 986.6 - 5.2
29/07:30pm 11.1 -0.6 3.2 58 3.5 NW 54 83 29 45 986.7 - 5.0
29/07:25pm 10.9 0.4 3.5 60 3.3 NW 48 83 26 45 986.4 - 5.0
29/07:00pm 10.7 2.6 5.1 68 2.6 NNW 37 65 20 35 986.3 986.4 5.0
29/06:30pm 11.6 1.9 3.9 59 3.4 NW 44 67 24 36 986.6 - 5.0
29/06:19pm 11.8 3.6 4.6 61 3.3 WNW 37 56 20 30 986.1 - 5.0
29/06:17pm 11.7 3.2 5.0 63 3.1 WNW 39 56 21 30 985.9 - 5.0
29/06:04pm 10.6 1.9 7.7 82 1.4 WSW 43 48 23 26 986.8 - 4.8
29/06:02pm 11.4 5.6 8.0 79 1.7 W 28 52 15 28 986.9 - 4.2
29/06:00pm 11.4 6.0 8.0 79 1.7 W 26 35 14 19 986.7 986.8 3.8
29/05:59pm 11.4 6.4 8.0 79 1.7 W 24 33 13 18 986.4 - 3.8
29/05:30pm 10.0 6.7 8.0 87 1.0 N 15 20 8 11 984.3 - 3.6
29/05:21pm 10.4 7.5 8.2 86 1.1 NNW 13 17 7 9 984.8 - 3.6
29/05:00pm 11.0 6.6 7.5 79 1.7 NNW 20 35 11 19 985.5 985.6 2.8
29/04:30pm 10.9 4.7 7.8 81 1.5 NNW 30 48 16 26 985.0 - 2.6
29/04:18pm 11.2 5.3 7.5 78 1.8 NNW 28 46 15 25 985.0 - 2.0
29/04:00pm 11.8 6.4 6.4 69 2.6 NNW 24 37 13 20 985.1 985.2 1.0
29/03:30pm 11.4 5.3 6.6 72 2.3 NW 28 37 15 20 985.9 - 1.0
29/03:00pm 11.5 4.4 6.5 71 2.4 NW 33 43 18 23 986.6 986.7 0.8
29/02:35pm 11.5 2.6 5.3 65 2.9 NNW 41 61 22 33 987.0 - 0.8
29/02:30pm 11.6 2.7 5.2 65 2.9 NNW 41 57 22 31 986.8 - 0.8
29/02:00pm 12.1 4.2 4.5 59 3.5 NNW 35 50 19 27 987.2 987.3 0.8
29/01:46pm 11.9 3.7 4.8 62 3.2 NNW 37 56 20 30 987.3 - 0.8
29/01:30pm 11.5 2.8 4.0 60 3.4 NNW 39 56 21 30 987.5 - 0.8
29/01:00pm 10.2 2.2 5.9 74 2.0 NNW 37 59 20 32 989.2 989.3 0.8
29/12:30pm 10.0 3.0 6.9 81 1.5 NW 33 52 18 28 990.5 - 0.8
29/12:00pm 11.0 3.4 5.7 70 2.5 NW 35 52 19 28 990.2 990.3 0.4
29/11:31am 10.8 2.9 6.4 74 2.1 NW 37 56 20 30 990.2 - 0.4
29/11:30am 10.9 2.6 6.0 72 2.3 NW 39 56 21 30 990.2 - 0.4
29/11:05am 11.8 1.1 4.6 61 3.3 NW 50 82 27 44 990.3 - 0.0
29/11:00am 12.5 1.7 4.2 57 3.8 NW 50 65 27 35 990.1 990.2 0.0
29/10:34am 12.6 6.1 6.6 67 2.9 NNW 30 48 16 26 990.2 - 0.0
29/10:30am 12.7 6.7 7.0 68 2.7 NNW 28 39 15 21 989.9 - 0.0
29/10:07am 12.5 6.5 7.2 70 2.6 NNW 28 52 15 28 990.1 - 0.0
29/10:00am 12.6 7.5 7.5 71 2.5 NW 24 37 13 20 990.4 990.5 0.0
29/09:30am 11.8 9.3 8.4 80 1.7 NNW 11 17 6 9 990.4 - 0.0
29/09:00am 11.4 8.0 9.0 85 1.2 N 17 30 9 16 990.5 990.6 4.8
29/08:30am 10.6 5.4 8.8 89 0.9 N 26 33 14 18 990.6 - 4.0
29/08:20am 11.0 5.3 8.2 83 1.4 N 28 39 15 21 990.9 - 3.2
29/08:00am 10.2 7.2 7.7 84 1.2 N 13 20 7 11 991.3 991.4 1.2
29/07:30am 10.2 7.6 7.7 84 1.2 NNW 11 15 6 8 991.7 - 1.0
29/07:00am 11.5 5.8 6.5 71 2.4 NW 26 33 14 18 992.4 992.5 0.4
29/06:52am 12.4 5.7 5.4 62 3.3 NNW 30 43 16 23 992.3 - 0.2
29/06:42am 12.0 5.0 6.1 67 2.8 N 32 50 17 27 991.4 - 0.2
29/06:30am 11.9 4.3 6.0 67 2.8 N 35 50 19 27 990.8 - 0.2
29/06:15am 12.3 4.1 4.7 60 3.5 N 37 56 20 30 990.9 - 0.2
29/06:00am 12.5 3.9 4.7 59 3.6 N 39 56 21 30 991.2 991.3 0.2
29/05:38am 12.2 5.1 3.8 56 3.8 N 30 48 16 26 991.9 - 0.2
29/05:30am 12.1 5.1 4.0 57 3.6 N 30 43 16 23 992.0 - 0.2
29/05:17am 11.9 5.3 4.0 58 3.5 N 28 48 15 26 992.3 - 0.2
29/05:00am 11.4 7.3 4.1 61 3.3 N 15 30 8 16 993.0 993.1 0.2
29/04:30am 10.9 6.8 4.3 64 3.0 N 15 26 8 14 993.9 - 0.2
29/04:00am 10.3 7.5 5.1 70 2.4 NNW 9 19 5 10 994.8 994.9 0.2
29/03:00am 11.3 6.2 4.0 61 3.3 N 20 30 11 16 995.9 996.0 0.2
29/02:30am 11.0 5.6 4.4 64 3.0 N 22 32 12 17 996.5 - 0.2
29/02:00am 11.2 5.3 4.1 61 3.2 N 24 32 13 17 996.9 997.0 0.2
29/01:30am 9.3 3.5 4.4 71 2.2 N 24 35 13 19 997.4 - 0.2
29/01:00am 9.7 6.0 4.3 69 2.4 N 13 19 7 10 998.1 998.1 0.2
29/12:30am 10.8 6.2 3.9 62 3.1 NNW 17 24 9 13 998.9 - 0.2
29/12:00am 10.5 6.0 4.0 64 2.9 NNW 17 32 9 17 999.2 999.2 0.2

Other Formats:

Comma delimited format used in spreadsheet applications
http://www.bom.gov.au/fwo/IDT60801/IDT60801.94975.axf

JavaScript Object Notation format (JSON) in row-major order
http://www.bom.gov.au/fwo/IDT60801/IDT60801.94975.json